Time;durP1;ratioP1;P1;durP2;ratioP2;P2;SDS_P1;SDS_P2;PMS_P1;PMS_P2;Temp;Humidity;BMP_temperature;BMP_pressure;BME280_temperature;BME280_humidity;BME280_pressure;Samples;Min_cycle;Max_cycle;Signal;HPM_P1;HPM_P2
2023/05/06 00:00:11;;;;;;;4.40;4.00;;;;;;;16.43;77.72;99280.62;7397401;39;21278;31
2023/05/06 00:05:48;;;;;;;5.20;3.90;;;;;;;16.33;77.19;99288.31;7419545;39;20230;31
2023/05/06 00:11:07;;;;;;;5.87;3.97;;;;;;;16.10;78.56;99273.12;7460287;39;20330;31
2023/05/06 00:16:44;;;;;;;4.30;3.90;;;;;;;16.03;78.26;99276.84;7468230;39;20324;31
2023/05/06 00:22:19;;;;;;;6.83;4.13;;;;;;;16.09;78.02;99276.91;7446284;39;21106;31
2023/05/06 00:27:37;;;;;;;7.70;3.70;;;;;;;16.10;78.36;99267.69;7401258;39;21230;31
2023/05/06 00:33:10;;;;;;;5.60;4.30;;;;;;;16.09;77.96;99263.31;7425026;39;21220;31
2023/05/06 00:38:42;;;;;;;6.33;4.20;;;;;;;16.15;78.21;99264.38;7368779;39;20234;31
2023/05/06 00:44:03;;;;;;;8.33;4.80;;;;;;;16.15;77.93;99259.78;7441482;39;20334;31
2023/05/06 00:49:39;;;;;;;7.00;4.70;;;;;;;16.12;77.74;99254.75;7467278;39;20257;31
2023/05/06 00:55:14;;;;;;;6.05;4.80;;;;;;;16.11;77.78;99263.09;7421352;39;20316;31
2023/05/06 01:00:46;;;;;;;5.45;4.85;;;;;;;16.05;78.11;99248.44;7382700;39;20318;31
2023/05/06 01:06:20;;;;;;;4.90;4.40;;;;;;;16.05;78.74;99247.59;7385855;39;21326;31
2023/05/06 01:11:52;;;;;;;5.80;4.70;;;;;;;15.98;78.63;99242.09;7389169;39;21247;31
2023/05/06 01:17:24;;;;;;;5.60;4.80;;;;;;;15.86;77.88;99248.31;7400357;39;21229;31
2023/05/06 01:23:00;;;;;;;6.23;4.40;;;;;;;15.82;78.88;99237.00;7406491;39;20317;31
2023/05/06 01:28:36;;;;;;;6.45;4.25;;;;;;;15.82;78.93;99228.84;7378466;39;20244;31
2023/05/06 01:34:13;;;;;;;7.35;4.85;;;;;;;15.81;78.79;99232.59;7394816;39;20378;31
2023/05/06 01:39:45;;;;;;;5.20;3.90;;;;;;;15.72;78.18;99233.78;7441321;39;20340;31
2023/05/06 01:45:20;;;;;;;5.60;4.30;;;;;;;15.64;79.41;99233.94;7486562;38;20244;31
2023/05/06 01:50:52;;;;;;;7.50;4.55;;;;;;;15.58;79.42;99237.44;7422456;39;20308;31
2023/05/06 01:56:10;;;;;;;6.85;5.00;;;;;;;15.52;78.39;99247.25;7401288;39;21216;31
2023/05/06 02:07:41;;;;;;;4.80;4.30;;;;;;;15.41;78.79;99242.28;7416365;39;20396;31
2023/05/06 02:18:06;;;;;;;7.35;5.10;;;;;;;15.32;79.08;99247.03;7416468;39;20260;31
2023/05/06 02:28:46;;;;;;;6.97;5.60;;;;;;;15.30;79.08;99248.28;7489685;38;20270;31
2023/05/06 02:34:21;;;;;;;7.35;6.35;;;;;;;15.29;78.46;99233.84;7469594;39;20272;31
2023/05/06 02:45:02;;;;;;;9.20;7.05;;;;;;;15.25;79.38;99227.12;7463245;39;21523;31
2023/05/06 02:50:22;;;;;;;10.07;7.50;;;;;;;15.31;78.78;99218.19;7461041;39;20259;31
2023/05/06 02:55:57;;;;;;;9.00;6.90;;;;;;;15.34;78.95;99222.41;7420179;39;20359;31
2023/05/06 03:01:30;;;;;;;11.07;7.83;;;;;;;15.31;78.28;99212.75;7404130;39;20291;31
2023/05/06 03:06:47;;;;;;;9.10;7.80;;;;;;;15.24;78.43;99216.47;7354425;39;20278;31
2023/05/06 03:12:18;;;;;;;12.80;8.43;;;;;;;15.11;77.56;99219.91;7403167;39;21303;31
2023/05/06 03:17:51;;;;;;;10.70;8.00;;;;;;;14.98;77.32;99213.50;7400178;39;20248;31
2023/05/06 03:23:08;;;;;;;11.23;9.03;;;;;;;14.80;78.75;99219.38;7395371;39;20246;31
2023/05/06 03:28:25;;;;;;;10.70;8.50;;;;;;;14.74;79.90;99218.28;7462667;39;20253;31
2023/05/06 03:33:58;;;;;;;10.60;8.50;;;;;;;14.64;79.67;99223.19;7420915;39;20353;31
2023/05/06 03:39:33;;;;;;;13.57;8.57;;;;;;;14.72;80.19;99219.50;7383679;39;20263;31
2023/05/06 03:45:05;;;;;;;11.10;9.10;;;;;;;14.67;80.28;99225.50;7381828;39;21280;31
2023/05/06 03:50:41;;;;;;;12.10;9.80;;;;;;;14.59;80.06;99211.22;7371766;39;20399;31
2023/05/06 04:01:05;;;;;;;11.33;8.10;;;;;;;14.58;79.81;99220.38;7415654;39;20274;31
2023/05/06 04:06:40;;;;;;;10.80;7.73;;;;;;;14.55;80.05;99218.91;7422276;39;20238;31
2023/05/06 04:12:15;;;;;;;9.23;7.33;;;;;;;14.54;79.98;99217.22;7416601;39;20330;31
2023/05/06 04:17:32;;;;;;;10.05;6.60;;;;;;;14.62;79.98;99227.09;7360196;39;20248;31
2023/05/06 04:23:09;;;;;;;7.85;6.50;;;;;;;14.56;79.19;99214.34;7383701;39;21245;31
2023/05/06 04:28:44;;;;;;;9.80;7.03;;;;;;;14.55;79.71;99229.75;7376588;39;20286;31
2023/05/06 04:34:16;;;;;;;10.83;7.07;;;;;;;14.58;80.10;99225.81;7445927;39;20341;31
2023/05/06 04:39:50;;;;;;;8.97;7.00;;;;;;;14.62;80.45;99241.50;7220552;39;20286;31
2023/05/06 04:45:11;;;;;;;8.95;7.50;;;;;;;14.74;79.72;99247.31;7452351;39;21230;31
2023/05/06 04:50:47;;;;;;;13.40;7.65;;;;;;;14.74;79.30;99253.53;7440418;39;21354;31
2023/05/06 05:01:25;;;;;;;9.67;7.80;;;;;;;14.67;79.16;99246.37;7323645;39;20290;31
2023/05/06 05:12:00;;;;;;;11.07;8.33;;;;;;;14.68;79.33;99264.34;7394995;39;20267;31
2023/05/06 05:22:38;;;;;;;9.63;7.67;;;;;;;14.73;79.94;99261.91;7444838;39;20257;31
2023/05/06 05:27:55;;;;;;;9.90;8.20;;;;;;;14.84;79.98;99274.94;7357036;39;20283;31
2023/05/06 05:33:15;;;;;;;10.15;8.60;;;;;;;14.98;79.39;99274.06;7368558;39;20324;31
2023/05/06 05:38:52;;;;;;;12.53;9.27;;;;;;;15.06;79.74;99267.66;7381649;39;20248;31
2023/05/06 05:44:09;;;;;;;13.00;9.25;;;;;;;15.22;79.89;99267.44;7396129;39;20243;31
2023/05/06 05:49:30;;;;;;;13.15;9.75;;;;;;;15.35;79.18;99272.97;7446505;39;20294;31
2023/05/06 05:55:03;;;;;;;13.90;9.70;;;;;;;15.46;79.54;99268.87;7404034;39;21339;31
2023/05/06 06:00:23;;;;;;;11.97;9.80;;;;;;;15.62;79.26;99280.31;7454106;39;20236;31
2023/05/06 06:06:00;;;;;;;11.17;8.70;;;;;;;15.77;79.24;99266.66;7448132;39;20234;31
2023/05/06 06:11:30;;;;;;;10.50;8.17;;;;;;;15.86;78.92;99276.34;7420013;39;20243;31
2023/05/06 06:17:17;;;;;;;8.75;7.05;;;;;;;15.94;80.41;99276.16;7377499;39;20381;31
2023/05/06 06:22:49;;;;;;;9.30;7.85;;;;;;;16.03;79.47;99287.72;7337919;39;21353;31
2023/05/06 06:33:26;;;;;;;9.37;7.40;;;;;;;16.37;78.88;99290.44;7381219;39;20278;31
2023/05/06 06:43:50;;;;;;;7.37;6.03;;;;;;;16.72;77.98;99288.53;7461223;39;20258;31
2023/05/06 06:49:39;;;;;;;7.25;6.00;;;;;;;16.83;77.77;99290.69;7461502;39;20242;31
2023/05/06 06:54:55;;;;;;;8.63;5.97;;;;;;;17.12;76.80;99279.44;7388087;39;20298;31
2023/05/06 07:00:16;;;;;;;8.50;5.50;;;;;;;17.23;75.98;99293.50;7421750;39;20264;31
2023/05/06 07:06:02;;;;;;;8.97;5.83;;;;;;;17.27;76.26;99292.03;7418135;39;21228;31
2023/05/06 07:16:40;;;;;;;8.90;8.00;;;;;;;17.63;75.44;99300.72;7399723;39;20259;31
2023/05/06 07:27:15;;;;;;;8.13;5.90;;;;;;;17.90;73.91;99299.63;7424426;39;20400;31
2023/05/06 07:37:38;;;;;;;6.93;4.40;;;;;;;18.02;73.07;99308.88;7399789;39;20280;31
2023/05/06 07:43:14;;;;;;;5.85;5.25;;;;;;;18.17;73.26;99311.34;7441491;39;21381;31
2023/05/06 07:53:50;;;;;;;6.40;4.53;;;;;;;18.35;72.79;99307.94;7421880;39;20288;31
2023/05/06 07:59:26;;;;;;;7.60;4.70;;;;;;;18.23;72.91;99309.66;7420034;39;20323;31
2023/05/06 08:04:59;;;;;;;4.80;4.30;;;;;;;18.53;72.48;99318.22;7387507;39;21217;31
2023/05/06 08:10:16;;;;;;;5.55;4.80;;;;;;;18.61;72.21;99323.44;7399821;39;20356;31
2023/05/06 08:15:50;;;;;;;6.10;5.30;;;;;;;18.64;72.05;99323.03;7379178;39;21262;31
2023/05/06 08:21:18;;;;;;;5.83;4.73;;;;;;;18.55;71.81;99322.44;7429148;39;20247;31
2023/05/06 08:26:35;;;;;;;5.00;4.20;;;;;;;18.50;71.85;99332.28;7450152;39;20238;31
2023/05/06 08:37:13;;;;;;;6.60;5.10;;;;;;;18.82;70.55;99321.25;7488177;38;20270;31
2023/05/06 08:47:46;;;;;;;8.45;5.60;;;;;;;18.87;70.24;99321.44;7442783;39;20270;31
2023/05/06 08:53:19;;;;;;;5.77;4.23;;;;;;;18.81;69.71;99321.50;7401722;39;21408;31
2023/05/06 08:58:51;;;;;;;4.10;3.70;;;;;;;18.83;69.79;99317.47;7330695;39;21182;31
2023/05/06 09:04:23;;;;;;;4.85;3.30;;;;;;;18.67;69.20;99311.69;7359661;39;20428;31
2023/05/06 09:09:57;;;;;;;3.53;3.23;;;;;;;18.81;68.74;99316.88;7388968;39;21291;31
2023/05/06 09:15:29;;;;;;;3.80;2.80;;;;;;;18.97;68.07;99331.91;7386501;39;21251;31
2023/05/06 09:21:01;;;;;;;4.40;2.85;;;;;;;19.13;66.22;99315.00;7388343;39;20305;31
2023/05/06 09:26:32;;;;;;;21.80;14.45;;;;;;;19.15;66.86;99312.06;7385786;39;21377;31
2023/05/06 09:31:51;;;;;;;5.70;4.30;;;;;;;19.55;64.72;99308.06;7385903;39;21278;31
2023/05/06 09:37:09;;;;;;;4.30;3.70;;;;;;;19.82;64.58;99310.59;7399847;39;20306;31
2023/05/06 09:42:44;;;;;;;3.47;2.80;;;;;;;20.03;64.35;99304.72;7480495;38;20223;31
2023/05/06 09:48:19;;;;;;;3.97;2.60;;;;;;;19.87;63.16;99310.75;7492089;38;20240;31
2023/05/06 09:53:51;;;;;;;2.78;2.35;;;;;;;20.08;62.26;99304.88;7461862;39;21316;31
2023/05/06 09:59:24;;;;;;;3.40;2.25;;;;;;;20.55;61.56;99295.13;7422029;39;21197;31
2023/05/06 10:04:57;;;;;;;3.60;2.30;;;;;;;20.44;60.74;99294.00;7399360;39;21239;31
2023/05/06 10:10:30;;;;;;;4.85;2.15;;;;;;;20.73;60.16;99291.53;7392563;39;20418;31
2023/05/06 10:16:02;;;;;;;2.90;2.45;;;;;;;20.83;59.39;99291.84;7427976;39;21431;31
2023/05/06 10:21:35;;;;;;;3.40;2.10;;;;;;;20.68;59.76;99287.59;7411679;39;21265;31
2023/05/06 10:27:07;;;;;;;2.27;2.07;;;;;;;20.74;59.25;99282.28;7395319;39;21210;31
2023/05/06 10:32:38;;;;;;;2.35;1.85;;;;;;;20.94;58.84;99288.31;7400438;39;20331;31
2023/05/06 10:38:11;;;;;;;3.17;1.80;;;;;;;21.00;58.59;99270.97;7363193;39;20322;31
2023/05/06 10:43:46;;;;;;;5.40;1.80;;;;;;;20.89;58.76;99263.50;7362464;39;21264;31
2023/05/06 10:49:31;;;;;;;2.65;1.90;;;;;;;21.21;58.09;99253.19;7357721;39;21430;31
2023/05/06 10:55:06;;;;;;;3.00;1.60;;;;;;;21.56;56.46;99243.12;7357829;39;20511;31
2023/05/06 11:00:38;;;;;;;4.45;2.05;;;;;;;21.75;56.51;99239.22;7367910;39;21262;31
2023/05/06 11:06:11;;;;;;;3.85;1.80;;;;;;;21.96;55.66;99238.66;7409009;39;21270;31
2023/05/06 11:11:59;;;;;;;4.10;1.70;;;;;;;21.68;55.65;99241.22;7436223;39;21260;31
2023/05/06 11:22:39;;;;;;;3.00;1.70;;;;;;;21.78;53.95;99235.16;7438586;39;20778;31
2023/05/06 11:33:18;;;;;;;3.28;1.85;;;;;;;22.07;54.83;99233.41;7468781;39;20247;31
2023/05/06 11:38:58;;;;;;;4.05;1.75;;;;;;;22.15;54.68;99236.63;7473226;39;20268;31
2023/05/06 11:44:42;;;;;;;2.50;1.65;;;;;;;22.20;54.17;99228.50;7420536;39;21194;31
2023/05/06 11:50:17;;;;;;;2.85;2.08;;;;;;;22.46;53.89;99219.72;7377332;39;21139;31
2023/05/06 11:55:51;;;;;;;2.75;2.10;;;;;;;22.70;52.06;99216.91;7178052;39;20246;31
2023/05/06 12:01:23;;;;;;;3.50;1.90;;;;;;;22.63;53.29;99217.06;7420555;39;21271;31
2023/05/06 12:06:56;;;;;;;2.30;1.70;;;;;;;22.48;52.67;99225.81;7402133;39;21336;31
2023/05/06 12:12:32;;;;;;;2.55;1.80;;;;;;;22.65;51.94;99220.38;7421578;39;21365;31
2023/05/06 12:18:03;;;;;;;2.15;1.95;;;;;;;22.87;51.96;99218.66;7387854;39;20485;31
2023/05/06 12:23:36;;;;;;;3.45;1.77;;;;;;;23.13;52.28;99211.69;7400420;39;21230;31
2023/05/06 12:34:18;;;;;;;2.20;1.57;;;;;;;23.17;50.94;99215.63;7459378;38;20261;31
2023/05/06 12:39:50;;;;;;;2.50;1.67;;;;;;;23.22;49.56;99203.88;7440886;39;21306;31
2023/05/06 12:45:28;;;;;;;2.73;1.40;;;;;;;23.21;49.29;99197.53;7353925;39;21211;31
2023/05/06 12:51:01;;;;;;;1.67;1.50;;;;;;;23.26;49.53;99203.13;7401354;39;20342;31
2023/05/06 12:56:37;;;;;;;2.42;1.58;;;;;;;23.30;48.41;99189.75;7386192;39;20384;31
2023/05/06 13:02:13;;;;;;;3.30;1.60;;;;;;;23.31;49.03;99186.72;7428332;39;20230;31
2023/05/06 13:07:46;;;;;;;2.05;1.60;;;;;;;23.45;47.26;99187.25;7463219;39;20341;31
2023/05/06 13:13:07;;;;;;;1.87;1.70;;;;;;;23.59;47.56;99182.25;7468029;39;21263;31
2023/05/06 13:18:43;;;;;;;2.25;1.50;;;;;;;23.48;46.79;99173.00;7488281;39;21160;31
2023/05/06 13:24:16;;;;;;;3.00;1.70;;;;;;;23.55;47.68;99153.56;7410068;39;21201;31
2023/05/06 13:29:50;;;;;;;2.50;1.30;;;;;;;23.84;46.85;99146.84;7440677;39;21440;31
2023/05/06 13:35:07;;;;;;;1.90;1.60;;;;;;;23.70;47.36;99156.53;7421958;39;20258;31
2023/05/06 13:40:43;;;;;;;1.60;1.40;;;;;;;23.55;47.15;99148.06;7405646;39;21370;31
2023/05/06 13:51:08;;;;;;;2.75;1.60;;;;;;;23.64;47.79;99144.66;7434313;39;20393;31
2023/05/06 13:56:44;;;;;;;3.25;1.60;;;;;;;23.69;47.19;99139.22;7487142;39;20237;31
2023/05/06 14:02:03;;;;;;;4.35;1.50;;;;;;;23.85;47.78;99150.44;7424630;39;21204;31
2023/05/06 14:07:20;;;;;;;2.10;1.53;;;;;;;23.69;47.48;99135.62;7462507;39;20352;31
2023/05/06 14:12:55;;;;;;;1.70;1.50;;;;;;;23.72;46.58;99130.44;7466248;39;20261;31
2023/05/06 14:18:27;;;;;;;3.20;1.50;;;;;;;23.74;47.85;99128.25;7442409;39;21195;31
2023/05/06 14:24:03;;;;;;;2.57;1.60;;;;;;;23.83;45.91;99125.91;7475990;38;20223;31
2023/05/06 14:29:36;;;;;;;1.40;1.30;;;;;;;23.83;45.80;99123.16;7419357;39;21274;31
2023/05/06 14:35:09;;;;;;;2.25;1.50;;;;;;;23.80;45.74;99109.91;7399858;39;21267;31
2023/05/06 14:40:28;;;;;;;2.00;1.80;;;;;;;23.77;45.74;99108.50;7398066;39;21369;31
2023/05/06 14:46:02;;;;;;;1.90;1.70;;;;;;;23.65;45.16;99104.19;7422891;39;20326;31
2023/05/06 14:51:24;;;;;;;3.00;2.30;;;;;;;23.67;45.30;99096.50;7465383;39;20249;31
2023/05/06 14:57:01;;;;;;;2.40;2.00;;;;;;;23.60;46.19;99093.09;7420729;39;21341;31
2023/05/06 15:02:34;;;;;;;2.95;1.75;;;;;;;23.51;45.24;99098.22;7442642;39;20392;31
2023/05/06 15:08:06;;;;;;;2.80;1.90;;;;;;;23.52;46.03;99091.59;7400311;39;21180;31
2023/05/06 15:13:40;;;;;;;3.70;2.92;;;;;;;23.64;46.74;99086.00;7417166;39;20256;31
2023/05/06 15:19:12;;;;;;;2.87;1.90;;;;;;;23.64;45.68;99080.50;7377625;39;20302;31
2023/05/06 15:24:34;;;;;;;3.86;1.50;;;;;;;23.67;45.38;99085.50;7428851;39;20286;31
2023/05/06 15:29:51;;;;;;;3.87;1.50;;;;;;;23.61;44.67;99087.34;7422475;39;20246;31
2023/05/06 15:35:24;;;;;;;1.55;1.45;;;;;;;23.55;44.17;99080.09;7415614;39;20242;31
2023/05/06 15:40:56;;;;;;;3.87;1.50;;;;;;;23.59;45.48;99077.69;7377743;39;21178;31
2023/05/06 15:46:17;;;;;;;3.20;2.72;;;;;;;23.50;44.00;99085.53;7427140;39;20243;31
2023/05/06 15:51:50;;;;;;;4.05;1.73;;;;;;;23.54;44.80;99085.84;7413035;39;20250;31
2023/05/06 15:57:26;;;;;;;2.30;1.40;;;;;;;23.50;43.38;99084.69;7410411;39;20252;31
2023/05/06 16:02:43;;;;;;;2.60;1.50;;;;;;;23.53;44.58;99078.69;7458218;39;21321;31
2023/05/06 16:13:22;;;;;;;1.30;1.20;;;;;;;23.44;43.35;99077.44;7400581;39;20254;31
2023/05/06 16:18:42;;;;;;;2.00;1.67;;;;;;;23.36;43.70;99074.00;7371726;39;21352;31
2023/05/06 16:29:19;;;;;;;2.65;1.90;;;;;;;23.03;44.52;99059.47;7400047;39;20391;31
2023/05/06 16:34:51;;;;;;;4.90;2.00;;;;;;;22.96;44.49;99056.87;7356480;39;21268;31
2023/05/06 16:40:28;;;;;;;3.97;1.67;;;;;;;22.90;45.46;99055.16;7445517;38;20219;31
2023/05/06 16:46:04;;;;;;;2.05;1.30;;;;;;;22.83;45.00;99057.22;7421383;39;20341;31
2023/05/06 16:51:21;;;;;;;2.80;1.30;;;;;;;22.77;45.77;99059.03;7440285;39;20258;31
2023/05/06 16:56:56;;;;;;;2.33;1.30;;;;;;;22.69;47.13;99062.19;7417504;39;21489;31
2023/05/06 17:02:32;;;;;;;2.00;1.50;;;;;;;22.57;46.81;99044.91;7376832;39;21180;31
2023/05/06 17:08:04;;;;;;;3.30;1.30;;;;;;;22.55;47.32;99038.84;7424226;39;20392;31
2023/05/06 17:13:37;;;;;;;2.10;1.40;;;;;;;22.48;46.89;99038.16;7429836;39;21234;31
2023/05/06 17:19:13;;;;;;;3.10;1.30;;;;;;;22.31;46.54;99038.13;7441738;39;20382;31
2023/05/06 17:24:34;;;;;;;3.42;1.73;;;;;;;22.24;47.36;99040.19;7444579;39;20223;31
2023/05/06 17:30:13;;;;;;;1.67;1.20;;;;;;;22.21;47.30;99031.59;7453580;39;21086;31
2023/05/06 17:35:49;;;;;;;2.95;1.33;;;;;;;22.16;48.00;99037.03;7441983;39;21228;31
2023/05/06 17:41:25;;;;;;;1.55;1.30;;;;;;;22.14;48.77;99031.75;7418472;39;21196;31
2023/05/06 17:46:44;;;;;;;2.60;1.60;;;;;;;22.06;49.23;99029.41;7357724;39;21447;31
2023/05/06 17:52:16;;;;;;;3.58;1.65;;;;;;;21.92;49.17;99030.75;7366237;39;20238;31
2023/05/06 17:57:34;;;;;;;1.60;1.40;;;;;;;21.85;49.04;99036.34;7422594;39;21268;31
2023/05/06 18:02:51;;;;;;;3.80;1.60;;;;;;;21.74;48.90;99036.41;7393840;39;21329;31
2023/05/06 18:08:28;;;;;;;3.05;1.30;;;;;;;21.59;48.46;99036.91;7424438;39;20485;31
2023/05/06 18:13:49;;;;;;;2.00;1.30;;;;;;;21.48;49.10;99038.59;7395696;39;21150;31
2023/05/06 18:19:09;;;;;;;3.30;1.80;;;;;;;21.35;49.47;99043.50;7400386;39;20485;31
2023/05/06 18:24:43;;;;;;;1.50;1.30;;;;;;;21.17;50.17;99044.47;7356452;39;22000;31
2023/05/06 18:30:16;;;;;;;2.83;1.58;;;;;;;21.07;51.46;99046.94;7162789;39;20283;31
2023/05/06 18:35:51;;;;;;;2.83;2.53;;;;;;;20.79;51.91;99052.28;7450368;39;20465;31
2023/05/06 18:41:27;;;;;;;2.55;1.73;;;;;;;20.60;53.33;99049.63;7475496;39;20238;31
2023/05/06 18:46:47;;;;;;;2.10;1.70;;;;;;;20.48;54.53;99051.50;7492369;38;20245;31
2023/05/06 18:52:04;;;;;;;2.10;1.62;;;;;;;20.40;55.33;99048.25;7463361;39;20257;31
2023/05/06 18:57:38;;;;;;;2.80;1.70;;;;;;;20.24;56.01;99064.22;7461085;39;20273;31
2023/05/06 19:02:55;;;;;;;2.55;1.60;;;;;;;20.15;56.33;99070.25;7378060;39;20461;31
2023/05/06 19:08:27;;;;;;;3.03;1.57;;;;;;;20.05;55.89;99067.25;7361421;39;20330;31
2023/05/06 19:14:01;;;;;;;2.37;1.70;;;;;;;19.89;57.12;99076.06;7381336;39;20260;31
2023/05/06 19:19:21;;;;;;;5.40;2.90;;;;;;;19.79;58.20;99082.06;7296608;39;20256;31
2023/05/06 19:24:56;;;;;;;4.60;3.20;;;;;;;19.69;57.69;99082.62;7323759;39;21412;31
2023/05/06 19:30:30;;;;;;;2.20;1.80;;;;;;;19.54;57.86;99090.38;7381487;39;20251;31
2023/05/06 19:35:49;;;;;;;3.93;1.93;;;;;;;19.43;58.78;99085.66;7397442;39;21226;31
2023/05/06 19:41:10;;;;;;;2.42;1.87;;;;;;;19.34;58.41;99089.72;7455785;38;20263;31
2023/05/06 19:46:46;;;;;;;2.75;1.55;;;;;;;19.16;59.19;99095.13;7441603;39;20246;31
2023/05/06 19:52:16;;;;;;;3.30;1.70;;;;;;;19.19;59.40;99086.50;7419413;39;20395;31
2023/05/06 19:57:34;;;;;;;2.80;1.60;;;;;;;19.19;59.09;99091.94;7401482;39;20231;31
2023/05/06 20:03:06;;;;;;;4.55;1.70;;;;;;;19.10;60.04;99093.28;7418317;39;20239;31
2023/05/06 20:08:24;;;;;;;4.30;2.83;;;;;;;19.06;59.51;99084.72;7399149;39;20289;31
2023/05/06 20:13:42;;;;;;;2.10;1.75;;;;;;;19.00;59.48;99085.59;7390463;39;20304;31
2023/05/06 20:19:16;;;;;;;4.10;2.10;;;;;;;18.87;60.38;99096.63;7440187;39;20542;31
2023/05/06 20:29:40;;;;;;;4.73;1.70;;;;;;;18.62;60.99;99099.34;7448716;39;21111;31
2023/05/06 20:35:16;;;;;;;6.73;2.13;;;;;;;18.51;61.56;99100.03;7508943;38;20362;31
2023/05/06 20:40:48;;;;;;;3.03;1.70;;;;;;;18.48;61.76;99106.75;7462729;39;21329;31
2023/05/06 20:46:06;;;;;;;4.13;1.93;;;;;;;18.51;61.06;99102.78;7424510;39;22096;31
2023/05/06 20:51:37;;;;;;;1.85;1.65;;;;;;;18.30;62.25;99109.37;7462655;39;20276;31
2023/05/06 20:56:58;;;;;;;2.53;1.90;;;;;;;18.23;60.79;99099.56;7478957;39;20514;31
2023/05/06 21:02:34;;;;;;;3.60;1.76;;;;;;;18.03;60.53;99086.03;7511787;38;20232;31
2023/05/06 21:08:01;;;;;;;2.60;1.75;;;;;;;17.97;60.95;99087.75;7462366;39;20241;31
2023/05/06 21:13:34;;;;;;;3.00;1.70;;;;;;;17.96;60.22;99093.41;7381001;39;20392;31
2023/05/06 21:18:52;;;;;;;2.50;1.90;;;;;;;17.97;60.70;99084.16;7395459;39;20320;31
2023/05/06 21:30:02;;;;;;;3.17;1.80;;;;;;;17.87;61.58;99076.44;7515295;39;20226;31
2023/05/06 21:40:36;;;;;;;3.04;1.80;;;;;;;17.90;61.15;99086.91;7444188;39;20363;31
2023/05/06 21:51:14;;;;;;;2.40;1.87;;;;;;;17.85;61.15;99055.91;7491897;38;20288;31
2023/05/06 22:01:39;;;;;;;2.93;2.00;;;;;;;17.90;61.08;99069.75;7518277;38;20392;31
2023/05/06 22:07:16;;;;;;;3.17;1.90;;;;;;;17.88;61.40;99072.69;7489537;38;20242;31
2023/05/06 22:12:51;;;;;;;4.53;2.25;;;;;;;17.87;61.86;99070.16;7446940;39;20243;31
2023/05/06 22:18:23;;;;;;;5.00;2.10;;;;;;;17.71;62.72;99065.19;7420539;39;20234;31
2023/05/06 22:29:00;;;;;;;7.10;2.40;;;;;;;17.65;62.70;99071.50;7377563;39;20640;31
2023/05/06 22:39:35;;;;;;;3.77;2.33;;;;;;;17.49;63.24;99078.22;7437820;38;20247;31
2023/05/06 22:45:11;;;;;;;3.90;2.20;;;;;;;17.49;63.42;99072.78;7441119;39;20277;31
2023/05/06 22:50:45;;;;;;;3.20;2.40;;;;;;;17.46;63.53;99073.22;7421939;39;21370;31
2023/05/06 22:56:01;;;;;;;2.45;2.05;;;;;;;17.37;63.75;99079.94;7423545;39;20311;31
2023/05/06 23:01:35;;;;;;;2.03;1.80;;;;;;;17.26;63.63;99075.97;7421137;39;21339;31
2023/05/06 23:06:56;;;;;;;3.40;2.15;;;;;;;17.11;64.46;99081.66;7398651;39;20256;31
2023/05/06 23:12:16;;;;;;;2.40;2.10;;;;;;;17.07;63.88;99080.41;7406017;39;21222;31
2023/05/06 23:17:53;;;;;;;2.90;2.40;;;;;;;16.97;65.04;99080.00;7418748;39;21265;31
2023/05/06 23:23:10;;;;;;;3.10;1.90;;;;;;;17.07;64.66;99085.00;7410115;39;21946;31
2023/05/06 23:28:31;;;;;;;2.60;2.10;;;;;;;17.20;64.30;99084.97;7405262;39;21159;31
2023/05/06 23:34:08;;;;;;;3.60;2.30;;;;;;;17.23;63.95;99070.13;7381201;39;21304;31
2023/05/06 23:44:32;;;;;;;3.90;2.30;;;;;;;17.20;63.85;99063.19;7462763;39;20711;31
2023/05/06 23:55:10;;;;;;;3.15;2.20;;;;;;;16.82;65.02;99054.03;7487298;38;20398;31
